createdAt,value
2023-04-11T00:01:07.658Z,87.88
2023-04-11T00:04:13.315Z,87.98
2023-04-11T00:07:16.273Z,88.51
2023-04-11T00:10:19.283Z,88.63
2023-04-11T00:13:23.963Z,88.32
2023-04-11T00:16:26.960Z,88.24
2023-04-11T00:19:30.150Z,88.31
2023-04-11T00:22:33.705Z,88.45
2023-04-11T00:25:37.511Z,88.76
2023-04-11T00:28:40.661Z,88.67
2023-04-11T00:31:48.831Z,88.70
2023-04-11T00:34:51.965Z,89.56
2023-04-11T00:37:56.426Z,89.33
2023-04-11T00:40:59.502Z,89.11
2023-04-11T00:44:02.421Z,88.72
2023-04-11T00:47:07.335Z,88.74
2023-04-11T00:50:14.173Z,88.82
2023-04-11T00:53:18.815Z,88.88
2023-04-11T00:56:22.332Z,88.66
2023-04-11T00:59:27.837Z,88.57
2023-04-11T01:02:31.029Z,88.53
2023-04-11T01:05:35.373Z,88.54
2023-04-11T01:08:40.156Z,88.41
2023-04-11T01:11:43.266Z,88.62
2023-04-11T01:14:47.941Z,88.61
2023-04-11T01:17:53.115Z,89.08
2023-04-11T01:20:56.156Z,89.64
2023-04-11T01:24:03.794Z,89.63
2023-04-11T01:27:06.834Z,89.53
2023-04-11T01:30:10.182Z,88.94
2023-04-11T01:33:15.013Z,89.20
2023-04-11T01:36:18.128Z,89.35
2023-04-11T01:39:21.197Z,89.21
2023-04-11T01:42:25.931Z,89.04
2023-04-11T01:45:30.249Z,89.50
2023-04-11T01:48:36.071Z,89.04
2023-04-11T01:51:39.103Z,89.27
2023-04-11T01:54:42.079Z,89.14
2023-04-11T01:57:45.092Z,89.03
2023-04-11T02:00:48.027Z,89.26
2023-04-11T02:03:51.548Z,89.69
2023-04-11T02:06:54.505Z,89.79
2023-04-11T02:09:58.052Z,89.79
2023-04-11T02:13:00.945Z,89.63
2023-04-11T02:16:09.467Z,89.49
2023-04-11T02:19:12.659Z,89.80
2023-04-11T02:22:16.102Z,90.00
2023-04-11T02:25:19.153Z,89.54
2023-04-11T02:28:22.698Z,89.77
2023-04-11T02:31:25.966Z,89.91
2023-04-11T02:34:28.851Z,89.46
2023-04-11T02:37:31.936Z,89.30
2023-04-11T02:40:34.865Z,89.55
2023-04-11T02:43:37.765Z,89.41
2023-04-11T02:46:41.210Z,89.31
2023-04-11T02:49:44.416Z,89.38
2023-04-11T02:52:49.477Z,89.30
2023-04-11T02:55:52.498Z,89.66
2023-04-11T02:58:55.828Z,89.45
2023-04-11T03:02:00.222Z,89.56
2023-04-11T03:05:04.337Z,89.64
2023-04-11T03:08:09.264Z,89.64
2023-04-11T03:11:12.490Z,89.77
2023-04-11T03:14:15.562Z,89.81
2023-04-11T03:17:18.773Z,89.95
2023-04-11T03:20:21.865Z,89.76
2023-04-11T03:23:24.869Z,90.12
2023-04-11T03:26:29.606Z,90.15
2023-04-11T03:29:32.828Z,90.01
2023-04-11T03:32:36.095Z,89.75
2023-04-11T03:35:39.107Z,89.86
2023-04-11T03:38:42.167Z,90.04
2023-04-11T03:41:45.341Z,90.21
2023-04-11T03:44:48.300Z,90.56
2023-04-11T03:47:51.335Z,90.50
2023-04-11T03:50:54.527Z,90.57
2023-04-11T03:53:57.962Z,90.77
2023-04-11T03:57:01.293Z,89.76
2023-04-11T04:00:07.813Z,90.00
2023-04-11T04:03:10.866Z,89.91
2023-04-11T04:06:14.041Z,90.04
2023-04-11T04:09:17.425Z,89.60
2023-04-11T04:12:21.834Z,89.37
2023-04-11T04:15:24.909Z,89.48
2023-04-11T04:18:28.095Z,89.68
2023-04-11T04:21:32.746Z,89.77
2023-04-11T04:24:38.584Z,89.70
2023-04-11T04:27:44.575Z,89.49
2023-04-11T04:30:54.333Z,88.96
2023-04-11T04:33:58.797Z,88.58
2023-04-11T04:37:02.260Z,88.38
2023-04-11T04:40:09.135Z,88.13
2023-04-11T04:43:20.308Z,88.06
2023-04-11T04:46:23.784Z,87.77
2023-04-11T04:49:26.735Z,87.71
2023-04-11T04:52:30.241Z,87.44
2023-04-11T04:55:33.536Z,86.19
2023-04-11T04:58:36.669Z,85.76
2023-04-11T05:01:40.273Z,85.26
2023-04-11T05:04:45.146Z,84.91
2023-04-11T05:07:48.677Z,84.22
2023-04-11T05:10:51.628Z,84.19
2023-04-11T05:13:55.764Z,84.14
2023-04-11T05:16:59.075Z,83.81
2023-04-11T05:20:02.225Z,83.57
2023-04-11T05:23:05.297Z,83.39
2023-04-11T05:26:09.200Z,82.54
2023-04-11T05:29:12.191Z,82.28
2023-04-11T05:32:15.499Z,81.78
2023-04-11T05:35:18.379Z,80.91
2023-04-11T05:38:21.788Z,80.30
2023-04-11T05:41:24.842Z,78.93
2023-04-11T05:44:27.733Z,78.46
2023-04-11T05:47:31.342Z,78.05
2023-04-11T05:50:35.236Z,77.83
2023-04-11T05:53:38.179Z,76.49
2023-04-11T05:56:42.580Z,77.33
2023-04-11T05:59:49.887Z,77.41
2023-04-11T06:02:53.097Z,76.43
2023-04-11T06:05:56.058Z,75.41
2023-04-11T06:08:59.824Z,74.70
2023-04-11T06:12:03.992Z,74.55
2023-04-11T06:15:09.224Z,74.83
2023-04-11T06:18:13.260Z,75.66
2023-04-11T06:21:17.522Z,74.68
2023-04-11T06:24:39.396Z,74.90
2023-04-11T06:27:42.329Z,74.68
2023-04-11T06:30:45.513Z,71.34
2023-04-11T06:33:49.038Z,72.35
2023-04-11T06:36:51.936Z,72.66
2023-04-11T06:39:55.673Z,71.32
2023-04-11T06:43:00.436Z,71.57
2023-04-11T06:46:03.496Z,68.66
2023-04-11T06:49:09.727Z,69.41
2023-04-11T06:52:12.648Z,70.44
2023-04-11T06:55:16.265Z,68.78
2023-04-11T06:58:19.259Z,67.21
2023-04-11T07:01:26.089Z,64.76
2023-04-11T07:04:29.783Z,64.88
2023-04-11T07:07:32.814Z,65.78
2023-04-11T07:10:35.731Z,65.70
2023-04-11T07:13:38.596Z,65.31
2023-04-11T07:16:41.658Z,65.78
2023-04-11T07:19:44.685Z,64.88
2023-04-11T07:22:47.517Z,64.69
2023-04-11T07:25:50.423Z,65.34
2023-04-11T07:28:53.276Z,64.44
2023-04-11T07:31:56.238Z,65.51
2023-04-11T07:34:59.140Z,65.46
2023-04-11T07:38:02.100Z,64.94
2023-04-11T07:41:05.763Z,64.81
2023-04-11T07:44:09.734Z,64.38
2023-04-11T07:47:12.673Z,65.02
2023-04-11T07:50:16.000Z,65.34
2023-04-11T07:53:19.026Z,63.38
2023-04-11T07:56:21.882Z,63.00
2023-04-11T07:59:25.253Z,62.36
2023-04-11T08:02:28.428Z,60.97
2023-04-11T08:05:33.252Z,61.14
2023-04-11T08:08:36.357Z,60.23
2023-04-11T08:11:39.587Z,60.62
2023-04-11T08:14:42.545Z,58.96
2023-04-11T08:17:46.427Z,59.31
2023-04-11T08:20:49.383Z,57.91
2023-04-11T08:23:52.345Z,56.80
2023-04-11T08:26:55.695Z,55.32
2023-04-11T08:29:59.497Z,55.48
2023-04-11T08:33:02.586Z,54.85
2023-04-11T08:36:10.106Z,54.11
2023-04-11T08:39:13.418Z,54.02
2023-04-11T08:42:30.167Z,52.42
2023-04-11T08:45:33.257Z,53.56
2023-04-11T08:48:36.385Z,54.12
2023-04-11T08:51:43.649Z,52.90
2023-04-11T08:54:47.279Z,52.25
2023-04-11T08:57:50.263Z,52.53
2023-04-11T09:00:53.197Z,52.70
2023-04-11T09:03:56.933Z,53.01
2023-04-11T09:07:01.475Z,51.81
2023-04-11T09:10:21.014Z,50.08
2023-04-11T09:13:28.136Z,51.97
2023-04-11T09:16:31.061Z,51.74
2023-04-11T09:19:35.262Z,51.14
2023-04-11T09:22:38.260Z,48.96
2023-04-11T09:25:44.804Z,50.45
2023-04-11T09:28:54.860Z,49.69
2023-04-11T09:31:57.978Z,49.77
2023-04-11T09:35:24.138Z,48.58
2023-04-11T09:38:35.218Z,48.22
2023-04-11T09:41:38.157Z,49.19
2023-04-11T09:44:41.102Z,48.54
2023-04-11T09:47:45.129Z,48.92
2023-04-11T09:50:49.755Z,48.69
2023-04-11T09:53:53.007Z,47.24
2023-04-11T09:56:57.763Z,47.40
2023-04-11T10:00:14.213Z,45.56
2023-04-11T10:03:20.286Z,43.92
2023-04-11T10:06:31.783Z,46.18
2023-04-11T10:09:39.283Z,47.01
2023-04-11T10:12:42.323Z,44.88
2023-04-11T10:16:09.178Z,44.26
2023-04-11T10:19:18.760Z,43.21
2023-04-11T10:22:50.779Z,43.82
2023-04-11T10:26:00.849Z,43.71
2023-04-11T10:29:40.646Z,44.24
2023-04-11T10:33:11.274Z,43.96
2023-04-11T10:36:14.176Z,42.96
2023-04-11T10:39:17.198Z,42.18
2023-04-11T10:42:35.799Z,43.60
2023-04-11T10:45:40.490Z,44.24
2023-04-11T10:49:06.516Z,41.64
2023-04-11T10:52:23.638Z,41.64
2023-04-11T10:55:28.943Z,40.99
2023-04-11T10:58:35.803Z,41.10
2023-04-11T11:04:47.138Z,39.43
2023-04-11T11:07:51.970Z,39.92
2023-04-11T11:11:08.914Z,39.03
2023-04-11T11:14:28.285Z,39.56
2023-04-11T11:17:31.151Z,38.50
2023-04-11T11:20:35.168Z,40.21
2023-04-11T11:23:38.102Z,39.39
2023-04-11T11:26:42.943Z,38.32
2023-04-11T11:29:46.177Z,38.59
2023-04-11T11:32:49.055Z,37.47
2023-04-11T11:35:58.395Z,38.40
2023-04-11T11:39:04.298Z,38.76
2023-04-11T11:42:07.349Z,39.01
2023-04-11T11:45:21.075Z,39.27
2023-04-11T11:48:25.218Z,35.04
2023-04-11T11:51:42.853Z,36.92
2023-04-11T11:54:47.372Z,34.20
2023-04-11T11:57:50.908Z,33.95
2023-04-11T12:00:54.485Z,32.89
2023-04-11T12:03:58.338Z,34.37
2023-04-11T12:07:11.537Z,35.34
2023-04-11T12:10:16.879Z,35.79
2023-04-11T12:13:20.077Z,35.38
2023-04-11T12:16:23.595Z,35.57
2023-04-11T12:19:27.377Z,35.45
2023-04-11T12:22:30.365Z,36.02
2023-04-11T12:25:33.342Z,36.61
2023-04-11T12:28:36.159Z,36.42
2023-04-11T12:31:39.076Z,35.95
2023-04-11T12:34:41.953Z,36.68
2023-04-11T12:37:45.122Z,36.30
2023-04-11T12:41:13.850Z,35.79
2023-04-11T12:44:18.218Z,35.17
2023-04-11T12:47:21.094Z,36.64
2023-04-11T12:50:24.507Z,37.21
2023-04-11T12:53:27.546Z,37.51
2023-04-11T12:56:30.775Z,37.91
2023-04-11T12:59:33.614Z,37.56
2023-04-11T13:02:43.245Z,37.23
2023-04-11T13:05:48.034Z,37.62
2023-04-11T13:08:51.109Z,38.56
2023-04-11T13:11:54.680Z,39.07
2023-04-11T13:14:57.531Z,39.42
2023-04-11T13:18:00.351Z,40.12
2023-04-11T13:21:03.932Z,41.05
2023-04-11T13:24:07.447Z,41.45
2023-04-11T13:27:10.357Z,42.71
2023-04-11T13:30:13.863Z,43.62
2023-04-11T13:33:16.678Z,44.48
2023-04-11T13:36:19.545Z,44.50
2023-04-11T13:39:22.386Z,44.87
2023-04-11T13:42:25.329Z,46.21
2023-04-11T13:45:30.301Z,47.13
2023-04-11T13:48:33.387Z,48.46
2023-04-11T13:51:36.387Z,49.04
2023-04-11T13:54:39.290Z,50.24
2023-04-11T13:57:42.134Z,51.57
2023-04-11T14:00:45.121Z,52.52
2023-04-11T14:03:49.699Z,53.24
2023-04-11T14:06:53.954Z,54.06
2023-04-11T14:09:56.749Z,55.20
2023-04-11T14:13:01.120Z,55.79
2023-04-11T14:16:09.322Z,55.84
2023-04-11T14:19:15.135Z,56.31
2023-04-11T14:22:18.004Z,58.15
2023-04-11T14:25:20.888Z,59.48
2023-04-11T14:28:26.417Z,59.82
2023-04-11T14:31:29.765Z,60.44
2023-04-11T14:34:32.735Z,61.35
2023-04-11T14:37:36.703Z,61.56
2023-04-11T14:40:39.624Z,63.78
2023-04-11T14:43:42.517Z,64.76
2023-04-11T14:46:45.408Z,67.88
2023-04-11T14:49:48.482Z,69.19
2023-04-11T14:52:52.269Z,69.70
2023-04-11T14:55:55.121Z,71.54
2023-04-11T14:58:58.041Z,74.68
2023-04-11T15:02:01.115Z,74.33
2023-04-11T15:05:04.300Z,77.33
2023-04-11T15:08:08.209Z,77.13
2023-04-11T15:11:11.367Z,77.86
2023-04-11T15:14:14.749Z,77.58
2023-04-11T15:17:17.590Z,80.49
2023-04-11T15:20:21.043Z,81.36
2023-04-11T15:23:24.246Z,80.25
2023-04-11T15:26:27.275Z,79.89
2023-04-11T15:29:30.094Z,81.57
2023-04-11T15:32:33.419Z,82.18
2023-04-11T15:35:36.544Z,82.48
2023-04-11T15:38:39.384Z,82.18
2023-04-11T15:41:42.155Z,82.53
2023-04-11T15:44:45.692Z,82.71
2023-04-11T15:47:48.624Z,84.53
2023-04-11T15:50:51.596Z,83.54
2023-04-11T15:53:54.848Z,83.37
2023-04-11T15:56:57.991Z,82.40
2023-04-11T16:00:01.296Z,81.47
2023-04-11T16:03:06.080Z,82.56
2023-04-11T16:06:15.399Z,81.26
2023-04-11T16:09:21.175Z,81.79
2023-04-11T16:12:23.977Z,81.07
2023-04-11T16:15:26.994Z,82.59
2023-04-11T16:18:29.939Z,81.07
2023-04-11T16:21:32.818Z,80.67
2023-04-11T16:24:35.765Z,79.89
2023-04-11T16:27:38.561Z,79.82
2023-04-11T16:30:41.664Z,80.24
2023-04-11T16:33:44.942Z,80.09
2023-04-11T16:36:48.100Z,79.13
2023-04-11T16:39:51.143Z,78.64
2023-04-11T16:42:54.201Z,78.18
2023-04-11T16:45:58.100Z,78.67
2023-04-11T16:49:01.350Z,79.46
2023-04-11T16:52:04.715Z,79.08
2023-04-11T16:55:07.975Z,78.59
2023-04-11T16:58:11.983Z,78.94
2023-04-11T17:01:15.240Z,79.76
2023-04-11T17:04:18.627Z,79.07
2023-04-11T17:07:22.008Z,79.87
2023-04-11T17:10:24.798Z,79.33
2023-04-11T17:13:27.806Z,79.19
2023-04-11T17:16:30.911Z,80.07
2023-04-11T17:19:34.025Z,82.16
2023-04-11T17:22:37.084Z,80.50
2023-04-11T17:25:40.049Z,79.76
2023-04-11T17:28:42.976Z,80.32
2023-04-11T17:31:46.545Z,81.86
2023-04-11T17:34:51.014Z,82.20
2023-04-11T17:37:55.135Z,83.11
2023-04-11T17:41:06.812Z,84.08
2023-04-11T17:44:16.300Z,84.75
2023-04-11T17:47:19.177Z,86.03
2023-04-11T17:50:22.131Z,86.25
2023-04-11T17:53:25.560Z,87.67
2023-04-11T17:56:28.601Z,88.51
2023-04-11T17:59:31.857Z,89.12
2023-04-11T18:02:37.575Z,89.45
2023-04-11T18:05:42.135Z,89.76
2023-04-11T18:08:51.498Z,89.85
2023-04-11T18:11:55.073Z,89.49
2023-04-11T18:14:57.953Z,90.00
2023-04-11T18:18:04.218Z,90.76
2023-04-11T18:21:07.984Z,90.29
2023-04-11T18:24:11.768Z,91.11
2023-04-11T18:27:15.029Z,90.26
2023-04-11T18:30:18.022Z,89.35
2023-04-11T18:33:21.202Z,89.58
2023-04-11T18:36:24.841Z,88.84
2023-04-11T18:39:29.400Z,88.97
2023-04-11T18:42:32.547Z,89.12
2023-04-11T18:45:35.769Z,88.43
2023-04-11T18:48:38.881Z,87.76
2023-04-11T18:51:42.115Z,87.96
2023-04-11T18:54:45.550Z,90.38
2023-04-11T18:57:49.161Z,88.97
2023-04-11T19:00:54.485Z,89.72
2023-04-11T19:03:58.338Z,89.90
2023-04-11T19:07:01.524Z,91.13
2023-04-11T19:10:06.315Z,90.91
2023-04-11T19:13:09.182Z,90.26
2023-04-11T19:16:12.623Z,89.28
2023-04-11T19:19:16.261Z,90.41
2023-04-11T19:22:19.322Z,89.34
2023-04-11T19:25:22.254Z,89.25
2023-04-11T19:28:25.087Z,89.79
2023-04-11T19:31:28.925Z,89.63
2023-04-11T19:34:33.966Z,89.99
2023-04-11T19:37:37.164Z,90.59
2023-04-11T19:40:40.386Z,89.90
2023-04-11T19:43:44.501Z,91.37
2023-04-11T19:46:47.357Z,90.07
2023-04-11T19:49:51.805Z,89.19
2023-04-11T19:52:58.508Z,90.12
2023-04-11T19:56:07.162Z,90.11
2023-04-11T19:59:10.589Z,90.25
2023-04-11T20:02:13.513Z,89.09
2023-04-11T20:05:18.913Z,89.34
2023-04-11T20:08:21.821Z,89.84
2023-04-11T20:11:25.849Z,90.15
2023-04-11T20:14:29.594Z,88.92
2023-04-11T20:17:32.928Z,89.35
2023-04-11T20:20:36.946Z,89.39
2023-04-11T20:23:40.521Z,88.64
2023-04-11T20:26:43.385Z,88.60
2023-04-11T20:29:50.001Z,88.83
2023-04-11T20:32:54.290Z,88.39
2023-04-11T20:35:57.239Z,88.04
2023-04-11T20:39:00.134Z,87.94
2023-04-11T20:42:03.135Z,87.87
2023-04-11T20:45:09.359Z,87.80
2023-04-11T20:48:13.643Z,88.04
2023-04-11T20:51:17.759Z,88.06
2023-04-11T20:54:21.942Z,88.02
2023-04-11T20:57:24.913Z,87.99
2023-04-11T21:00:27.859Z,87.64
2023-04-11T21:03:31.210Z,87.33
2023-04-11T21:06:34.197Z,87.12
2023-04-11T21:09:37.161Z,86.93
2023-04-11T21:12:41.396Z,86.85
2023-04-11T21:15:44.319Z,86.62
2023-04-11T21:18:47.648Z,85.80
2023-04-11T21:21:50.883Z,85.71
2023-04-11T21:24:53.713Z,85.76
2023-04-11T21:27:56.628Z,85.48
2023-04-11T21:30:59.567Z,85.54
2023-04-11T21:34:02.440Z,85.30
2023-04-11T21:37:05.286Z,85.30
2023-04-11T21:40:08.492Z,85.36
2023-04-11T21:43:11.256Z,85.32
2023-04-11T21:46:14.208Z,85.10
2023-04-11T21:49:17.014Z,85.15
2023-04-11T21:52:19.852Z,85.15
2023-04-11T21:55:22.658Z,85.15
2023-04-11T21:58:29.870Z,85.04
2023-04-11T22:01:33.148Z,85.06
2023-04-11T22:04:43.967Z,85.04
2023-04-11T22:08:12.731Z,85.04
2023-04-11T22:11:15.576Z,84.90
2023-04-11T22:14:18.467Z,85.01
2023-04-11T22:17:22.338Z,85.27
2023-04-11T22:20:25.211Z,85.00
2023-04-11T22:23:28.212Z,85.43
2023-04-11T22:26:34.310Z,85.06
2023-04-11T22:29:37.439Z,85.13
2023-04-11T22:32:41.016Z,85.18
2023-04-11T22:35:50.758Z,84.88
2023-04-11T22:38:53.689Z,84.86
2023-04-11T22:41:56.613Z,84.80
2023-04-11T22:44:59.381Z,84.48
2023-04-11T22:48:04.372Z,84.61
2023-04-11T22:51:07.993Z,84.03
2023-04-11T22:54:13.190Z,84.00
2023-04-11T22:57:16.327Z,83.79
2023-04-11T23:00:19.326Z,83.72
2023-04-11T23:03:22.475Z,83.60
2023-04-11T23:06:25.396Z,83.56
2023-04-11T23:09:28.456Z,83.32
2023-04-11T23:12:32.501Z,83.29
2023-04-11T23:15:35.761Z,83.04
2023-04-11T23:18:38.794Z,83.25
2023-04-11T23:21:41.637Z,83.00
2023-04-11T23:24:45.560Z,82.94
2023-04-11T23:27:48.352Z,83.19
2023-04-11T23:30:51.188Z,83.12
2023-04-11T23:33:54.215Z,83.02
2023-04-11T23:36:58.037Z,83.00
2023-04-11T23:40:07.314Z,83.08
2023-04-11T23:43:10.195Z,82.71
2023-04-11T23:46:13.826Z,82.80
2023-04-11T23:49:16.717Z,82.89
2023-04-11T23:52:20.860Z,82.89
2023-04-11T23:55:23.674Z,82.91
2023-04-11T23:58:26.640Z,82.85
